createdAt,value
2022-09-25T00:02:15.004Z,65.23
2022-09-25T00:14:15.422Z,65.29
2022-09-25T00:26:15.857Z,67.46
2022-09-25T00:38:16.289Z,65.32
2022-09-25T00:50:16.775Z,65.32
2022-09-25T01:02:17.258Z,63.99
2022-09-25T01:14:17.669Z,67.67
2022-09-25T01:26:18.132Z,65.79
2022-09-25T01:38:18.575Z,64.32
2022-09-25T01:50:19.060Z,66.41
2022-09-25T02:02:19.590Z,66.15
2022-09-25T02:14:19.946Z,74.87
2022-09-25T02:26:20.392Z,67.04
2022-09-25T02:38:20.848Z,65.05
2022-09-25T02:50:21.302Z,67.27
2022-09-25T03:02:21.819Z,66.92
2022-09-25T03:14:22.202Z,66.02
2022-09-25T03:26:22.706Z,70.15
2022-09-25T03:38:23.112Z,68.22
2022-09-25T03:50:23.544Z,65.90
2022-09-25T04:02:24.088Z,72.83
2022-09-25T04:14:24.483Z,68.33
2022-09-25T04:26:24.957Z,70.34
2022-09-25T04:38:25.381Z,68.51
2022-09-25T04:50:25.829Z,72.37
2022-09-25T05:02:26.413Z,68.62
2022-09-25T05:14:26.694Z,70.24
2022-09-25T05:26:27.159Z,68.69
2022-09-25T05:38:27.673Z,71.15
2022-09-25T05:50:28.117Z,68.30
2022-09-25T06:02:28.624Z,68.72
2022-09-25T06:14:28.967Z,69.32
2022-09-25T06:26:29.443Z,71.24
2022-09-25T06:38:29.914Z,73.96
2022-09-25T06:50:30.359Z,77.83
2022-09-25T07:02:30.836Z,75.43
2022-09-25T07:14:31.265Z,73.65
2022-09-25T07:26:31.765Z,72.64
2022-09-25T07:38:32.134Z,73.18
2022-09-25T07:50:32.638Z,72.18
2022-09-25T08:02:33.089Z,74.82
2022-09-25T08:14:33.552Z,75.15
2022-09-25T08:26:33.990Z,77.48
2022-09-25T08:38:34.428Z,75.40
2022-09-25T08:50:34.900Z,74.44
2022-09-25T09:02:35.389Z,74.19
2022-09-25T09:14:35.815Z,72.73
2022-09-25T09:26:36.260Z,72.15
2022-09-25T09:38:36.686Z,75.48
2022-09-25T09:50:41.948Z,76.41
2022-09-25T10:02:37.772Z,77.53
2022-09-25T10:14:38.061Z,76.43
2022-09-25T10:26:38.491Z,75.88
2022-09-25T10:38:38.990Z,76.38
2022-09-25T10:50:39.446Z,76.76
2022-09-25T11:02:39.962Z,78.03
2022-09-25T11:14:40.340Z,80.03
2022-09-25T11:26:40.765Z,78.63
2022-09-25T11:38:41.276Z,78.17
2022-09-25T11:50:41.682Z,79.76
2022-09-25T12:02:42.172Z,79.19
2022-09-25T12:14:42.619Z,78.93
2022-09-25T12:26:43.051Z,79.15
2022-09-25T12:38:43.493Z,77.21
2022-09-25T12:50:43.957Z,77.91
2022-09-25T13:02:44.428Z,80.43
2022-09-25T13:14:44.869Z,82.76
2022-09-25T13:26:45.304Z,82.28
2022-09-25T13:38:45.783Z,81.54
2022-09-25T13:50:46.246Z,82.17
2022-09-25T14:02:46.690Z,74.37
2022-09-25T14:14:47.102Z,77.20
2022-09-25T14:26:47.601Z,77.05
2022-09-25T14:38:48.090Z,76.28
2022-09-25T14:50:48.517Z,74.83
2022-09-25T15:02:49.039Z,76.53
2022-09-25T15:14:49.395Z,77.24
2022-09-25T15:26:49.863Z,75.80
2022-09-25T15:38:50.313Z,79.55
2022-09-25T15:50:50.751Z,80.17
2022-09-25T16:02:52.350Z,79.50
2022-09-25T16:14:51.708Z,77.05
2022-09-25T16:26:52.108Z,78.07
2022-09-25T16:38:52.592Z,82.22
2022-09-25T16:50:53.047Z,82.26
2022-09-25T17:02:53.608Z,80.77
2022-09-25T17:14:53.948Z,79.78
2022-09-25T17:26:54.366Z,80.08
2022-09-25T17:38:54.854Z,79.92
2022-09-25T17:50:55.353Z,81.60
2022-09-25T18:02:55.807Z,79.37
2022-09-25T18:14:56.198Z,83.53
2022-09-25T18:26:56.645Z,82.50
2022-09-25T18:38:57.140Z,82.87
2022-09-25T18:50:57.580Z,84.96
2022-09-25T19:02:58.141Z,83.13
2022-09-25T19:14:58.469Z,80.67
2022-09-25T19:26:59.070Z,78.15
2022-09-25T19:38:59.377Z,78.51
2022-09-25T19:50:59.820Z,81.00
2022-09-25T20:03:00.381Z,77.52
2022-09-25T20:15:00.772Z,81.52
2022-09-25T20:27:01.176Z,80.96
2022-09-25T20:39:01.619Z,79.96
2022-09-25T20:51:02.065Z,79.90
2022-09-25T21:03:02.619Z,79.47
2022-09-25T21:15:02.994Z,76.83
2022-09-25T21:27:03.443Z,79.87
2022-09-25T21:39:03.897Z,80.28
2022-09-25T21:51:04.413Z,85.99
2022-09-25T22:03:04.838Z,84.63
2022-09-25T22:15:05.206Z,77.44
2022-09-25T22:27:05.761Z,76.59
2022-09-25T22:39:06.275Z,79.14
2022-09-25T22:51:06.639Z,77.81
2022-09-25T23:03:07.080Z,81.96
2022-09-25T23:15:07.551Z,79.55
2022-09-25T23:27:08.012Z,76.87
2022-09-25T23:39:08.596Z,77.30
2022-09-25T23:51:08.889Z,83.01
